createdAt,value
2018-09-12T00:02:16.956Z,2.53
2018-09-12T00:04:45.044Z,2.77
2018-09-12T00:07:13.372Z,3.43
2018-09-12T00:09:41.521Z,2.17
2018-09-12T00:12:09.677Z,3.60
2018-09-12T00:14:37.863Z,1.80
2018-09-12T00:17:06.029Z,1.63
2018-09-12T00:19:34.198Z,1.97
2018-09-12T00:22:02.469Z,1.43
2018-09-12T00:24:30.796Z,1.37
2018-09-12T00:26:59.147Z,1.17
2018-09-12T00:29:27.301Z,1.50
2018-09-12T00:31:55.687Z,1.10
2018-09-12T00:34:23.817Z,0.90
2018-09-12T00:36:51.942Z,1.43
2018-09-12T00:39:20.073Z,1.37
2018-09-12T00:41:48.180Z,0.53
2018-09-12T00:44:16.332Z,2.83
2018-09-12T00:46:44.469Z,1.27
2018-09-12T00:49:12.579Z,3.13
2018-09-12T00:51:40.728Z,1.40
2018-09-12T00:54:08.866Z,0.90
2018-09-12T00:56:36.993Z,0.60
2018-09-12T00:59:05.212Z,0.60
2018-09-12T01:01:33.360Z,0.80
2018-09-12T01:04:01.500Z,0.80
2018-09-12T01:06:29.612Z,0.70
2018-09-12T01:08:57.916Z,1.53
2018-09-12T01:11:26.028Z,0.60
2018-09-12T01:13:55.284Z,0.93
2018-09-12T01:16:23.389Z,1.90
2018-09-12T01:18:51.507Z,1.23
2018-09-12T01:21:19.644Z,0.67
2018-09-12T01:23:47.794Z,1.27
2018-09-12T01:26:15.916Z,0.60
2018-09-12T01:28:44.042Z,1.93
2018-09-12T01:31:12.186Z,0.73
2018-09-12T01:33:40.289Z,0.40
2018-09-12T01:36:08.407Z,1.23
2018-09-12T01:38:36.542Z,0.40
2018-09-12T01:41:04.654Z,0.30
2018-09-12T01:43:32.762Z,1.53
2018-09-12T01:46:00.957Z,0.93
2018-09-12T01:48:29.107Z,1.80
2018-09-12T01:50:57.260Z,1.33
2018-09-12T01:53:25.364Z,0.70
2018-09-12T01:55:53.734Z,0.97
2018-09-12T01:58:21.841Z,0.77
2018-09-12T02:00:49.934Z,0.40
2018-09-12T02:03:18.062Z,0.67
2018-09-12T02:05:46.418Z,0.80
2018-09-12T02:08:14.711Z,1.10
2018-09-12T02:10:42.819Z,0.63
2018-09-12T02:13:11.146Z,0.97
2018-09-12T02:15:39.219Z,0.50
2018-09-12T02:18:07.311Z,0.30
2018-09-12T02:20:35.402Z,0.40
2018-09-12T02:23:03.526Z,0.20
2018-09-12T02:25:31.599Z,0.60
2018-09-12T02:27:59.695Z,0.50
2018-09-12T02:30:27.776Z,0.87
2018-09-12T02:32:55.883Z,1.43
2018-09-12T02:35:24.115Z,1.23
2018-09-12T02:37:52.219Z,4.13
2018-09-12T02:40:20.343Z,1.83
2018-09-12T02:42:48.444Z,0.40
2018-09-12T02:45:16.518Z,1.63
2018-09-12T02:47:44.602Z,1.37
2018-09-12T02:50:13.437Z,0.27
2018-09-12T02:52:41.688Z,0.70
2018-09-12T02:55:11.554Z,2.40
2018-09-12T02:57:39.655Z,1.07
2018-09-12T03:00:08.134Z,1.20
2018-09-12T03:02:36.411Z,0.43
2018-09-12T03:05:04.478Z,0.50
2018-09-12T03:07:32.586Z,0.97
2018-09-12T03:10:00.663Z,1.03
2018-09-12T03:12:28.768Z,0.43
2018-09-12T03:14:56.839Z,2.20
2018-09-12T03:17:24.936Z,0.40
2018-09-12T03:19:53.035Z,0.30
2018-09-12T03:22:21.140Z,1.53
2018-09-12T03:24:49.222Z,0.60
2018-09-12T03:27:17.322Z,0.80
2018-09-12T03:29:45.704Z,1.37
2018-09-12T03:32:13.791Z,0.40
2018-09-12T03:34:41.877Z,0.60
2018-09-12T03:37:09.965Z,1.00
2018-09-12T03:39:38.084Z,1.17
2018-09-12T03:42:06.178Z,0.43
2018-09-12T03:44:34.265Z,0.60
2018-09-12T03:47:02.351Z,0.30
2018-09-12T03:49:30.442Z,1.23
2018-09-12T03:51:58.523Z,0.67
2018-09-12T03:54:26.611Z,0.67
2018-09-12T03:56:54.707Z,0.30
2018-09-12T03:59:22.795Z,1.13
2018-09-12T04:01:50.897Z,0.30
2018-09-12T04:04:18.998Z,1.90
2018-09-12T04:06:47.093Z,1.33
2018-09-12T04:09:15.177Z,0.50
2018-09-12T04:11:43.281Z,2.33
2018-09-12T04:14:11.380Z,1.20
2018-09-12T04:16:39.501Z,1.33
2018-09-12T04:19:07.596Z,0.87
2018-09-12T04:21:35.691Z,0.90
2018-09-12T04:24:03.809Z,2.23
2018-09-12T04:26:31.936Z,1.73
2018-09-12T04:29:00.039Z,4.27
2018-09-12T04:31:28.124Z,1.40
2018-09-12T04:33:56.234Z,1.50
2018-09-12T04:36:24.319Z,1.90
2018-09-12T04:38:52.409Z,1.80
2018-09-12T04:41:20.505Z,1.17
2018-09-12T04:43:48.599Z,1.63
2018-09-12T04:46:16.690Z,1.37
2018-09-12T04:48:44.803Z,1.30
2018-09-12T04:51:12.883Z,0.53
2018-09-12T04:53:40.983Z,1.53
2018-09-12T04:56:09.061Z,2.13
2018-09-12T04:58:37.204Z,10.03
2018-09-12T05:01:05.583Z,2.10
2018-09-12T05:03:33.710Z,4.80
2018-09-12T05:06:01.808Z,2.83
2018-09-12T05:08:29.923Z,6.50
2018-09-12T05:10:58.028Z,2.33
2018-09-12T05:13:26.122Z,1.93
2018-09-12T05:15:54.258Z,2.60
2018-09-12T05:18:22.299Z,12.13
2018-09-12T05:20:50.363Z,4.73
2018-09-12T05:23:18.479Z,5.37
2018-09-12T05:25:46.553Z,5.17
2018-09-12T05:28:14.728Z,4.63
2018-09-12T05:30:42.916Z,3.23
2018-09-12T05:33:10.995Z,9.43
2018-09-12T05:35:39.326Z,6.53
2018-09-12T05:38:09.580Z,3.33
2018-09-12T05:40:37.666Z,4.33
2018-09-12T05:43:05.944Z,4.93
2018-09-12T05:45:34.150Z,8.37
2018-09-12T05:48:02.234Z,10.67
2018-09-12T05:50:30.324Z,2.43
2018-09-12T05:52:58.407Z,1.20
2018-09-12T05:55:26.554Z,3.03
2018-09-12T05:57:54.667Z,3.63
2018-09-12T06:00:23.070Z,6.50
2018-09-12T06:02:51.348Z,5.67
2018-09-12T06:05:19.423Z,1.80
2018-09-12T06:07:47.507Z,2.20
2018-09-12T06:10:15.583Z,4.47
2018-09-12T06:12:43.784Z,4.10
2018-09-12T06:15:11.871Z,5.43
2018-09-12T06:17:39.998Z,2.00
2018-09-12T06:20:08.100Z,2.37
2018-09-12T06:22:36.423Z,2.77
2018-09-12T06:25:04.531Z,5.00
2018-09-12T06:27:32.780Z,3.07
2018-09-12T06:30:00.858Z,4.30
2018-09-12T06:32:29.600Z,3.10
2018-09-12T06:34:57.680Z,3.40
2018-09-12T06:37:28.744Z,4.93
2018-09-12T06:39:56.815Z,4.03
2018-09-12T06:42:24.882Z,1.87
2018-09-12T06:44:54.846Z,4.07
2018-09-12T06:47:23.455Z,3.43
2018-09-12T06:49:51.539Z,3.53
2018-09-12T06:52:21.084Z,3.73
2018-09-12T06:54:49.869Z,2.13
2018-09-12T06:57:17.935Z,4.07
2018-09-12T06:59:46.051Z,2.00
2018-09-12T07:02:14.146Z,2.23
2018-09-12T07:04:42.292Z,1.60
2018-09-12T07:07:10.390Z,4.90
2018-09-12T07:09:38.586Z,1.93
2018-09-12T07:12:06.672Z,1.63
2018-09-12T07:14:34.995Z,3.57
2018-09-12T07:17:03.071Z,3.03
2018-09-12T07:19:31.175Z,2.73
2018-09-12T07:21:59.255Z,2.07
2018-09-12T07:24:27.420Z,1.43
2018-09-12T07:26:55.423Z,3.13
2018-09-12T07:29:23.523Z,2.40
2018-09-12T07:31:51.647Z,2.47
2018-09-12T07:34:19.784Z,1.77
2018-09-12T07:36:47.929Z,2.70
2018-09-12T07:39:16.020Z,2.10
2018-09-12T07:41:44.190Z,2.70
2018-09-12T07:44:12.248Z,2.63
2018-09-12T07:46:40.571Z,2.47
2018-09-12T07:49:08.747Z,3.77
2018-09-12T07:51:36.771Z,2.57
2018-09-12T07:54:04.896Z,2.13
2018-09-12T07:56:33.090Z,0.63
2018-09-12T07:59:01.111Z,1.97
2018-09-12T08:01:29.216Z,1.93
2018-09-12T08:03:57.328Z,1.87
2018-09-12T08:06:25.427Z,1.63
2018-09-12T08:08:55.147Z,1.67
2018-09-12T08:11:23.400Z,1.03
2018-09-12T08:13:51.484Z,2.93
2018-09-12T08:16:19.566Z,2.17
2018-09-12T08:18:47.848Z,3.90
2018-09-12T08:21:15.923Z,2.13
2018-09-12T08:23:44.261Z,1.43
2018-09-12T08:26:12.476Z,1.87
2018-09-12T08:28:40.531Z,2.37
2018-09-12T08:31:08.603Z,1.40
2018-09-12T08:33:36.743Z,2.20
2018-09-12T08:36:04.850Z,1.63
2018-09-12T08:38:32.928Z,3.77
2018-09-12T08:41:01.007Z,2.20
2018-09-12T08:43:29.075Z,1.60
2018-09-12T08:45:57.164Z,1.63
2018-09-12T08:48:25.243Z,2.77
2018-09-12T08:50:53.335Z,0.80
2018-09-12T08:53:21.658Z,2.80
2018-09-12T08:55:50.157Z,2.00
2018-09-12T08:58:18.520Z,2.07
2018-09-12T09:00:52.615Z,2.70
2018-09-12T09:03:20.722Z,1.63
2018-09-12T09:05:48.825Z,1.30
2018-09-12T09:08:17.035Z,1.00
2018-09-12T09:10:45.125Z,1.50
2018-09-12T09:13:13.260Z,1.40
2018-09-12T09:15:41.464Z,2.57
2018-09-12T09:18:09.595Z,0.97
2018-09-12T09:20:38.743Z,1.33
2018-09-12T09:23:07.137Z,1.47
2018-09-12T09:25:35.431Z,1.77
2018-09-12T09:28:03.586Z,2.13
2018-09-12T09:30:33.084Z,1.63
2018-09-12T09:33:01.264Z,1.47
2018-09-12T09:35:30.182Z,2.40
2018-09-12T09:37:58.267Z,1.03
2018-09-12T09:40:26.380Z,1.13
2018-09-12T09:42:54.758Z,1.10
2018-09-12T09:45:22.786Z,1.90
2018-09-12T09:47:51.048Z,1.10
2018-09-12T09:50:19.063Z,1.43
2018-09-12T09:52:47.387Z,1.10
2018-09-12T09:55:15.764Z,2.03
2018-09-12T09:57:44.076Z,2.40
2018-09-12T10:00:17.639Z,1.60
2018-09-12T10:02:51.040Z,1.50
2018-09-12T10:07:32.362Z,1.33
2018-09-12T10:10:03.371Z,1.27
2018-09-12T10:12:31.701Z,1.17
2018-09-12T10:15:00.060Z,2.17
2018-09-12T10:17:28.336Z,1.50
2018-09-12T10:19:57.205Z,1.50
2018-09-12T10:22:25.320Z,1.73
2018-09-12T10:24:53.546Z,1.17
2018-09-12T10:27:21.735Z,1.57
2018-09-12T10:29:49.950Z,2.10
2018-09-12T10:32:18.169Z,1.37
2018-09-12T10:34:46.447Z,1.43
2018-09-12T10:37:16.444Z,1.77
2018-09-12T10:39:45.537Z,1.07
2018-09-12T10:42:13.637Z,1.00
2018-09-12T10:44:42.012Z,1.27
2018-09-12T10:47:10.121Z,3.87
2018-09-12T10:49:38.211Z,2.57
2018-09-12T10:52:06.291Z,3.20
2018-09-12T10:54:34.722Z,1.53
2018-09-12T10:57:04.003Z,2.53
2018-09-12T10:59:32.112Z,3.03
2018-09-12T11:02:00.243Z,3.10
2018-09-12T11:04:28.469Z,3.03
2018-09-12T11:06:56.502Z,2.77
2018-09-12T11:09:24.602Z,3.80
2018-09-12T11:11:52.687Z,2.10
2018-09-12T11:14:20.759Z,4.60
2018-09-12T11:16:48.823Z,3.30
2018-09-12T11:19:16.978Z,3.73
2018-09-12T11:21:46.396Z,1.63
2018-09-12T11:24:14.471Z,1.97
2018-09-12T11:26:42.570Z,3.50
2018-09-12T11:29:10.663Z,5.27
2018-09-12T11:31:38.844Z,4.27
2018-09-12T11:34:06.992Z,7.17
2018-09-12T11:36:35.035Z,6.10
2018-09-12T11:39:03.320Z,3.70
2018-09-12T11:41:31.596Z,4.37
2018-09-12T11:43:59.728Z,7.67
2018-09-12T11:46:28.144Z,7.23
2018-09-12T11:48:56.536Z,8.33
2018-09-12T11:51:24.623Z,6.93
2018-09-12T11:53:52.761Z,5.90
2018-09-12T11:56:21.168Z,5.73
2018-09-12T11:58:49.279Z,5.53
2018-09-12T12:01:17.402Z,5.40
2018-09-12T12:03:45.720Z,2.83
2018-09-12T12:06:13.835Z,4.20
2018-09-12T12:08:41.941Z,2.93
2018-09-12T12:11:10.063Z,4.00
2018-09-12T12:13:38.191Z,7.07
2018-09-12T12:16:06.283Z,14.40
2018-09-12T12:18:34.523Z,6.10
2018-09-12T12:21:02.594Z,4.73
2018-09-12T12:23:30.692Z,1.97
2018-09-12T12:25:58.810Z,3.10
2018-09-12T12:28:27.455Z,2.87
2018-09-12T12:30:55.613Z,3.47
2018-09-12T12:33:23.691Z,3.30
2018-09-12T12:35:51.800Z,3.57
2018-09-12T12:38:19.915Z,7.27
2018-09-12T12:40:47.994Z,4.80
2018-09-12T12:43:16.091Z,2.97
2018-09-12T12:45:44.212Z,3.50
2018-09-12T12:48:12.325Z,3.93
2018-09-12T12:50:40.407Z,7.90
2018-09-12T12:53:08.696Z,4.40
2018-09-12T12:55:36.808Z,5.73
2018-09-12T12:58:04.911Z,11.30
2018-09-12T13:00:33.130Z,4.53
2018-09-12T13:03:01.212Z,2.97
2018-09-12T13:05:29.315Z,7.07
2018-09-12T13:07:57.428Z,7.87
2018-09-12T13:10:25.734Z,7.53
2018-09-12T13:12:53.826Z,13.70
2018-09-12T13:15:21.907Z,15.87
2018-09-12T13:17:49.983Z,9.23
2018-09-12T13:20:18.266Z,6.30
2018-09-12T13:22:46.377Z,18.00
2018-09-12T13:25:14.472Z,9.57
2018-09-12T13:27:42.717Z,6.60
2018-09-12T13:30:13.984Z,6.40
2018-09-12T13:32:42.097Z,12.83
2018-09-12T13:35:10.192Z,10.97
2018-09-12T13:37:38.284Z,9.90
2018-09-12T13:40:06.559Z,6.43
2018-09-12T13:42:34.679Z,9.40
2018-09-12T13:45:02.845Z,6.33
2018-09-12T13:47:31.160Z,11.67
2018-09-12T13:49:59.503Z,9.07
2018-09-12T13:52:27.689Z,7.03
2018-09-12T13:54:57.388Z,11.07
2018-09-12T13:57:25.494Z,5.97
2018-09-12T13:59:53.660Z,5.93
2018-09-12T14:02:21.761Z,7.63
2018-09-12T14:04:49.880Z,7.70
2018-09-12T14:07:18.666Z,9.73
2018-09-12T14:09:46.832Z,4.60
2018-09-12T14:12:15.020Z,4.53
2018-09-12T14:14:44.320Z,4.10
2018-09-12T14:17:12.419Z,4.77
2018-09-12T14:19:40.596Z,6.93
2018-09-12T14:22:09.035Z,9.10
2018-09-12T14:24:38.050Z,6.40
2018-09-12T14:27:06.146Z,5.73
2018-09-12T14:29:34.235Z,4.27
2018-09-12T14:32:02.313Z,4.23
2018-09-12T14:34:30.378Z,4.33
2018-09-12T14:36:58.443Z,4.90
2018-09-12T14:39:26.591Z,4.43
2018-09-12T14:41:54.653Z,6.20
2018-09-12T14:44:22.721Z,2.50
2018-09-12T14:46:50.819Z,6.03
2018-09-12T14:49:19.000Z,4.23
2018-09-12T14:51:47.076Z,4.80
2018-09-12T14:54:15.695Z,7.07
2018-09-12T14:56:43.980Z,6.37
2018-09-12T14:59:12.190Z,3.27
2018-09-12T15:01:40.284Z,2.50
2018-09-12T15:04:08.374Z,3.17
2018-09-12T15:06:36.458Z,5.33
2018-09-12T15:09:07.435Z,3.30
2018-09-12T15:11:35.744Z,4.40
2018-09-12T15:14:03.943Z,3.87
2018-09-12T15:16:32.028Z,5.03
2018-09-12T15:19:00.103Z,4.57
2018-09-12T15:21:28.223Z,4.93
2018-09-12T15:23:56.303Z,4.87
2018-09-12T15:26:24.404Z,3.83
2018-09-12T15:28:52.487Z,3.63
2018-09-12T15:31:20.609Z,3.30
2018-09-12T15:33:52.873Z,2.83
2018-09-12T15:36:20.975Z,3.83
2018-09-12T15:38:49.144Z,5.10
2018-09-12T15:41:17.270Z,1.60
2018-09-12T15:43:45.333Z,2.10
2018-09-12T15:46:13.551Z,2.60
2018-09-12T15:48:41.779Z,3.03
2018-09-12T15:51:09.855Z,2.23
2018-09-12T15:53:37.939Z,5.03
2018-09-12T15:56:06.047Z,4.93
2018-09-12T15:58:34.123Z,3.03
2018-09-12T16:01:02.411Z,2.67
2018-09-12T16:03:30.485Z,2.93
2018-09-12T16:05:58.580Z,4.97
2018-09-12T16:08:26.652Z,4.23
2018-09-12T16:10:54.742Z,4.67
2018-09-12T16:13:22.820Z,4.20
2018-09-12T16:15:50.940Z,3.33
2018-09-12T16:18:19.007Z,2.57
2018-09-12T16:20:47.151Z,2.27
2018-09-12T16:23:15.231Z,2.87
2018-09-12T16:25:43.316Z,3.17
2018-09-12T16:28:11.632Z,3.33
2018-09-12T16:30:39.718Z,2.47
2018-09-12T16:33:08.130Z,1.90
2018-09-12T16:35:37.404Z,2.30
2018-09-12T16:38:05.648Z,6.07
2018-09-12T16:40:33.730Z,2.60
2018-09-12T16:43:01.823Z,3.67
2018-09-12T16:45:29.903Z,5.97
2018-09-12T16:47:58.007Z,3.70
2018-09-12T16:50:26.153Z,2.30
2018-09-12T16:52:54.219Z,5.20
2018-09-12T16:55:22.324Z,1.30
2018-09-12T16:57:50.416Z,4.17
2018-09-12T17:00:18.669Z,2.33
2018-09-12T17:02:46.789Z,2.13
2018-09-12T17:05:14.881Z,3.37
2018-09-12T17:07:42.959Z,1.63
2018-09-12T17:10:11.034Z,2.07
2018-09-12T17:12:39.120Z,2.57
2018-09-12T17:15:07.189Z,1.70
2018-09-12T17:17:35.393Z,1.90
2018-09-12T17:20:03.468Z,2.37
2018-09-12T17:22:31.559Z,1.97
2018-09-12T17:24:59.654Z,1.17
2018-09-12T17:27:27.808Z,6.27
2018-09-12T17:29:56.328Z,5.67
2018-09-12T17:32:24.507Z,1.97
2018-09-12T17:34:52.568Z,2.63
2018-09-12T17:37:20.866Z,3.03
2018-09-12T17:39:49.072Z,4.03
2018-09-12T17:42:17.328Z,3.73
2018-09-12T17:44:45.432Z,2.17
2018-09-12T17:47:13.633Z,5.93
2018-09-12T17:49:41.872Z,4.50
2018-09-12T17:52:09.990Z,3.77
2018-09-12T17:54:38.380Z,6.87
2018-09-12T17:57:06.467Z,1.90
2018-09-12T17:59:34.900Z,3.43
2018-09-12T18:02:03.867Z,3.57
2018-09-12T18:04:32.580Z,6.27
2018-09-12T18:07:00.708Z,3.90
2018-09-12T18:09:28.787Z,3.73
2018-09-12T18:11:56.895Z,5.40
2018-09-12T18:14:24.993Z,4.93
2018-09-12T18:16:53.163Z,3.83
2018-09-12T18:19:21.307Z,2.67
2018-09-12T18:21:49.449Z,4.27
2018-09-12T18:24:17.608Z,4.90
2018-09-12T18:26:46.068Z,4.27
2018-09-12T18:29:15.551Z,1.93
2018-09-12T18:31:43.680Z,4.27
2018-09-12T18:34:11.989Z,2.70
2018-09-12T18:36:40.237Z,4.93
2018-09-12T18:39:10.607Z,4.27
2018-09-12T18:41:40.046Z,3.43
2018-09-12T18:44:08.665Z,9.43
2018-09-12T18:46:36.804Z,3.53
2018-09-12T18:49:05.536Z,2.90
2018-09-12T18:51:34.572Z,3.37
2018-09-12T18:54:03.788Z,6.23
2018-09-12T18:56:32.015Z,3.73
2018-09-12T18:59:00.548Z,2.20
2018-09-12T19:01:30.688Z,4.03
2018-09-12T19:03:58.971Z,2.30
2018-09-12T19:06:27.150Z,3.23
2018-09-12T19:08:55.265Z,3.20
2018-09-12T19:11:23.378Z,2.50
2018-09-12T19:13:51.509Z,4.73
2018-09-12T19:16:19.622Z,1.30
2018-09-12T19:18:47.843Z,5.77
2018-09-12T19:21:15.880Z,4.37
2018-09-12T19:23:44.062Z,3.03
2018-09-12T19:26:12.192Z,3.30
2018-09-12T19:28:40.315Z,3.50
2018-09-12T19:31:08.394Z,3.30
2018-09-12T19:33:36.531Z,6.23
2018-09-12T19:36:04.907Z,2.93
2018-09-12T19:38:33.125Z,5.27
2018-09-12T19:41:01.340Z,4.00
2018-09-12T19:43:29.613Z,4.43
2018-09-12T19:45:57.800Z,3.00
2018-09-12T19:48:25.940Z,4.30
2018-09-12T19:50:54.219Z,3.70
2018-09-12T19:53:22.500Z,7.07
2018-09-12T19:55:50.593Z,4.63
2018-09-12T19:58:18.688Z,3.13
2018-09-12T20:00:46.782Z,3.43
2018-09-12T20:03:14.887Z,6.40
2018-09-12T20:05:43.084Z,2.33
2018-09-12T20:08:11.194Z,2.77
2018-09-12T20:10:39.407Z,4.53
2018-09-12T20:13:07.575Z,5.07
2018-09-12T20:15:35.734Z,3.93
2018-09-12T20:18:03.858Z,4.17
2018-09-12T20:20:31.963Z,4.97
2018-09-12T20:23:00.065Z,5.73
2018-09-12T20:25:28.155Z,8.10
2018-09-12T20:27:56.283Z,5.43
2018-09-12T20:30:24.404Z,7.07
2018-09-12T20:32:52.515Z,4.13
2018-09-12T20:35:20.635Z,10.50
2018-09-12T20:37:48.751Z,3.27
2018-09-12T20:40:16.868Z,5.93
2018-09-12T20:42:44.988Z,5.33
2018-09-12T20:45:13.080Z,2.50
2018-09-12T20:47:41.183Z,3.57
2018-09-12T20:50:09.267Z,3.80
2018-09-12T20:52:37.384Z,3.37
2018-09-12T20:55:05.533Z,5.37
2018-09-12T20:57:33.643Z,2.97
2018-09-12T21:00:01.785Z,2.37
2018-09-12T21:02:29.888Z,4.40
2018-09-12T21:04:57.984Z,6.87
2018-09-12T21:07:26.156Z,2.10
2018-09-12T21:09:54.261Z,3.00
2018-09-12T21:12:22.474Z,4.20
2018-09-12T21:14:50.625Z,2.97
2018-09-12T21:17:19.700Z,2.93
2018-09-12T21:19:48.026Z,3.13
2018-09-12T21:22:16.156Z,6.40
2018-09-12T21:24:44.260Z,3.67
2018-09-12T21:27:12.407Z,2.50
2018-09-12T21:29:40.588Z,1.60
2018-09-12T21:32:08.676Z,1.93
2018-09-12T21:34:36.780Z,4.40
2018-09-12T21:37:04.878Z,2.80
2018-09-12T21:39:32.968Z,6.87
2018-09-12T21:42:01.073Z,2.50
2018-09-12T21:44:29.314Z,2.80
2018-09-12T21:46:57.427Z,3.37
2018-09-12T21:49:25.523Z,3.67
2018-09-12T21:51:53.657Z,1.63
2018-09-12T21:54:21.845Z,4.13
2018-09-12T21:56:49.934Z,3.00
2018-09-12T21:59:18.267Z,2.70
2018-09-12T22:01:46.349Z,2.40
2018-09-12T22:04:14.525Z,3.47
2018-09-12T22:06:42.643Z,3.67
2018-09-12T22:09:13.221Z,2.40
2018-09-12T22:11:41.394Z,3.33
2018-09-12T22:14:09.531Z,3.27
2018-09-12T22:16:38.368Z,3.77
2018-09-12T22:19:06.454Z,1.60
2018-09-12T22:21:34.607Z,2.23
2018-09-12T22:24:02.992Z,2.03
2018-09-12T22:26:31.099Z,1.87
2018-09-12T22:28:59.345Z,3.27
2018-09-12T22:31:27.448Z,2.43
2018-09-12T22:33:55.567Z,2.87
2018-09-12T22:36:23.714Z,4.53
2018-09-12T22:38:51.775Z,3.07
2018-09-12T22:41:19.875Z,2.20
2018-09-12T22:43:47.962Z,2.43
2018-09-12T22:46:16.115Z,2.23
2018-09-12T22:48:44.215Z,3.20
2018-09-12T22:51:12.324Z,2.07
2018-09-12T22:53:40.411Z,2.60
2018-09-12T22:56:08.474Z,1.87
2018-09-12T22:58:36.754Z,2.07
2018-09-12T23:01:04.855Z,1.60
2018-09-12T23:03:32.963Z,1.43
2018-09-12T23:06:01.055Z,3.17
2018-09-12T23:08:29.146Z,2.27
2018-09-12T23:10:57.242Z,1.63
2018-09-12T23:13:25.334Z,4.20
2018-09-12T23:15:53.555Z,2.37
2018-09-12T23:18:21.654Z,1.53
2018-09-12T23:20:49.808Z,1.70
2018-09-12T23:23:17.883Z,1.40
2018-09-12T23:25:45.971Z,2.20
2018-09-12T23:28:14.085Z,1.50
2018-09-12T23:30:42.217Z,2.57
2018-09-12T23:33:10.342Z,3.43
2018-09-12T23:35:38.440Z,3.23
2018-09-12T23:38:06.531Z,2.67
2018-09-12T23:40:34.646Z,2.80
2018-09-12T23:43:02.751Z,2.63
2018-09-12T23:45:30.920Z,2.50
2018-09-12T23:47:59.163Z,1.97
2018-09-12T23:50:27.326Z,1.07
2018-09-12T23:52:55.439Z,2.83
2018-09-12T23:55:23.610Z,2.23
2018-09-12T23:57:51.691Z,2.00
